METAR Data

Data at: 0627 UTC 24 May 2022

EDDW 240620Z AUTO 20008KT 170V230 9999 BKN015 BKN023 15/12 Q1001 TEMPO BKN014
EDDW 240550Z AUTO 21007KT 9999 BKN014 BKN021 14/12 Q1000 BECMG SCT014
EDDW 240520Z AUTO 22005KT 180V250 9999 FEW014 SCT028 BKN034 14/12 Q1000 NOSIG
EDDW 240450Z AUTO 22007KT 180V250 9999 FEW021 BKN030 14/11 Q1000 NOSIG
EDDW 240420Z AUTO 23008KT 9999 FEW014 SCT032 13/11 Q1000 TEMPO BKN013
EDDW 240350Z AUTO 23007KT 9999 FEW033 13/11 Q1000 TEMPO BKN012
EDDW 240320Z AUTO 24009KT 9999 SCT014 SCT020 OVC032 14/12 Q0999
EDDW 240250Z AUTO 25012KT 9999 BKN016 BKN021 OVC038 14/12 Q0999
EDDW 240220Z AUTO 25010KT 9999 SCT013 BKN029 OVC036 14/12 Q0999
EDDW 240150Z AUTO 25012KT 9999 BKN014 BKN024 OVC028 14/12 Q0999
EDDW 240120Z AUTO 26012KT 9999 SCT013 BKN018 14/12 Q0999
EDDW 240050Z AUTO 26014KT 9999 BKN012 BKN019 14/12 Q0998
EDDW 240020Z AUTO 27014G26KT 9999 BKN011 OVC028 OVC033 15/13 Q0998
EDDW 232350Z AUTO 27025G35KT 9999 -RADZ BKN009 BKN014 15/14 Q0997
EDDW 232320Z AUTO 19005KT 9999 -RA FEW021 16/15 Q0996 RESHRA
EDDW 232250Z AUTO 17006KT 140V200 6000 SHRA FEW008 BKN026 BKN046 FEW///CB 16/15 Q0996
EDDW 232220Z AUTO 14009KT 9999 -SHRA FEW023 FEW///CB 17/14 Q0996 RESHRA
EDDW 232150Z AUTO 13008KT 9999 FEW038 17/14 Q0996
EDDW 232120Z AUTO 13007KT 100V160 CAVOK 17/14 Q0996 RESHRA
EDDW 232050Z AUTO 12005KT 9999 SHRA FEW///TCU 17/15 Q0996 BECMG 14010KT NSW
EDDW 232020Z AUTO 14010KT 9999 -RA FEW035 17/14 Q0996 TEMPO 19015G25KT 4000 SHRA BKN035CB
EDDW 231950Z AUTO 15013KT 9999 -RA BKN039 BKN048 19/13 Q0996 TEMPO 19015G25KT 4000 SHRA BKN035CB
EDDW 231920Z AUTO 14011KT CAVOK 21/12 Q0996 TEMPO 19015G25KT 4000 SHRA BKN035CB
EDDW 231850Z AUTO 13009KT 9999 SCT048 22/12 Q0997 TEMPO 19015G25KT SHRA BKN035CB
EDDW 231820Z AUTO 15012KT 9999 SCT049 22/11 Q0997 TEMPO 19015G25KT SHRA BKN035CB
EDDW 231750Z AUTO 15014KT CAVOK 22/11 Q0997 NOSIG
EDDW 231720Z AUTO 15015KT CAVOK 23/11 Q0997 NOSIG
EDDW 231650Z AUTO 14012KT 100V160 CAVOK 23/11 Q0997 NOSIG
EDDW 231620Z AUTO 13015KT 100V160 CAVOK 24/12 Q0998 TEMPO 13015G25KT
EDDW 231550Z AUTO 13014KT 100V160 CAVOK 24/12 Q0998 TEMPO 13015G25KT
EDDW 231520Z AUTO 13015KT 100V160 CAVOK 24/12 Q0999 TEMPO 14015G25KT
EDDW 231450Z AUTO 14016KT 110V170 CAVOK 24/11 Q1000 TEMPO 14015G25KT
EDDW 231420Z AUTO 13015KT 090V160 CAVOK 24/11 Q1000 TEMPO 14015G25KT
EDDW 231350Z AUTO 12015KT 100V160 CAVOK 24/11 Q1001 TEMPO 14015G25KT
EDDW 231320Z AUTO 13015KT 090V160 CAVOK 23/11 Q1001 TEMPO 14015G25KT
EDDW 231250Z AUTO 13013KT 100V170 CAVOK 22/10 Q1002 TEMPO 14015G25KT
EDDW 231220Z AUTO 12014KT 080V150 CAVOK 23/10 Q1002 TEMPO 14015G25KT
EDDW 231150Z AUTO 13014G24KT 100V160 CAVOK 22/11 Q1003 TEMPO 14015G25KT
EDDW 231120Z AUTO 12011KT CAVOK 21/10 Q1003 TEMPO 14015G25KT
EDDW 231050Z AUTO 12014KT 090V160 CAVOK 20/10 Q1004 TEMPO 13015G25KT
EDDW 231020Z AUTO 11014KT 080V140 CAVOK 20/09 Q1004 TEMPO 13015G25KT
EDDW 230950Z AUTO 13013KT 100V160 CAVOK 19/10 Q1005 TEMPO 13015G25KT
EDDW 230920Z AUTO 14012KT 110V170 CAVOK 19/10 Q1005 TEMPO 13015G25KT
EDDW 230850Z AUTO 13010KT 100V160 CAVOK 19/09 Q1006 TEMPO 13015G25KT
EDDW 230820Z AUTO 13010KT 090V150 CAVOK 18/10 Q1006 TEMPO 13015G25KT
EDDW 230750Z AUTO 13010KT 090V170 CAVOK 17/09 Q1006 NOSIG
EDDW 230720Z AUTO 14011KT 100V160 CAVOK 16/09 Q1007 NOSIG
EDDW 230650Z AUTO 13009KT 100V160 CAVOK 16/09 Q1007 NOSIG
EDDW 230620Z AUTO 12008KT CAVOK 15/08 Q1007 NOSIG
EDDW 230550Z AUTO 12008KT CAVOK 14/08 Q1007 NOSIG
EDDW 230520Z AUTO 12009KT CAVOK 14/08 Q1007 NOSIG
EDDW 230450Z AUTO 12007KT 090V150 CAVOK 13/08 Q1008 NOSIG
EDDW 230420Z AUTO 13008KT CAVOK 12/07 Q1008 NOSIG
EDDW 230350Z AUTO 12008KT 090V150 CAVOK 12/07 Q1009 NOSIG
EDDW 230320Z AUTO 12008KT CAVOK 12/07 Q1009
EDDW 230250Z AUTO 10008KT CAVOK 12/07 Q1009
EDDW 230220Z AUTO 11008KT CAVOK 12/07 Q1009
EDDW 230150Z AUTO 10007KT CAVOK 11/07 Q1010
EDDW 230120Z AUTO 10005KT CAVOK 11/07 Q1010
EDDW 230050Z AUTO 09005KT CAVOK 11/08 Q1011
EDDW 230020Z AUTO 09003KT CAVOK 12/08 Q1011
EDDW 222350Z AUTO 08006KT CAVOK 12/08 Q1011
EDDW 222320Z AUTO 08006KT CAVOK 12/08 Q1012
EDDW 222250Z AUTO 09007KT CAVOK 12/08 Q1012
EDDW 222220Z AUTO 08007KT CAVOK 12/08 Q1012
EDDW 222150Z AUTO 08006KT CAVOK 12/08 Q1012
EDDW 222120Z AUTO 08006KT CAVOK 12/08 Q1012
EDDW 222050Z AUTO 07004KT CAVOK 13/08 Q1013 NOSIG
EDDW 222020Z AUTO 11003KT CAVOK 13/09 Q1013 NOSIG
EDDW 221950Z AUTO 10003KT CAVOK 15/08 Q1013 NOSIG
EDDW 221920Z AUTO 09002KT CAVOK 15/07 Q1013 NOSIG
EDDW 221850Z AUTO VRB02KT CAVOK 17/07 Q1013 NOSIG